sensor_id;sensor_type;location;lat;lon;timestamp;P1;durP1;ratioP1;P2;durP2;ratioP2
49472;SDS011;67434;50.956;6.918;2023-03-29T00:00:45;4.43;;;1.40;;
49472;SDS011;67434;50.956;6.918;2023-03-29T00:03:10;3.78;;;2.05;;
49472;SDS011;67434;50.956;6.918;2023-03-29T00:05:38;5.05;;;2.30;;
49472;SDS011;67434;50.956;6.918;2023-03-29T00:08:05;3.95;;;1.40;;
49472;SDS011;67434;50.956;6.918;2023-03-29T00:10:31;4.30;;;1.52;;
49472;SDS011;67434;50.956;6.918;2023-03-29T00:12:58;3.13;;;1.45;;
49472;SDS011;67434;50.956;6.918;2023-03-29T00:15:24;4.10;;;1.95;;
49472;SDS011;67434;50.956;6.918;2023-03-29T00:17:50;6.30;;;2.20;;
49472;SDS011;67434;50.956;6.918;2023-03-29T00:20:15;5.93;;;1.98;;
49472;SDS011;67434;50.956;6.918;2023-03-29T00:22:42;3.25;;;1.98;;
49472;SDS011;67434;50.956;6.918;2023-03-29T00:25:08;3.28;;;1.70;;
49472;SDS011;67434;50.956;6.918;2023-03-29T00:27:35;3.97;;;1.85;;
49472;SDS011;67434;50.956;6.918;2023-03-29T00:30:00;2.97;;;1.80;;
49472;SDS011;67434;50.956;6.918;2023-03-29T00:32:28;3.25;;;2.13;;
49472;SDS011;67434;50.956;6.918;2023-03-29T00:34:56;3.42;;;1.63;;
49472;SDS011;67434;50.956;6.918;2023-03-29T00:37:22;3.67;;;1.67;;
49472;SDS011;67434;50.956;6.918;2023-03-29T00:39:50;2.70;;;1.70;;
49472;SDS011;67434;50.956;6.918;2023-03-29T00:42:17;5.50;;;2.00;;
49472;SDS011;67434;50.956;6.918;2023-03-29T00:44:59;3.13;;;1.65;;
49472;SDS011;67434;50.956;6.918;2023-03-29T00:49:55;2.78;;;1.50;;
49472;SDS011;67434;50.956;6.918;2023-03-29T00:52:26;3.60;;;2.05;;
49472;SDS011;67434;50.956;6.918;2023-03-29T00:54:56;8.27;;;2.95;;
49472;SDS011;67434;50.956;6.918;2023-03-29T00:57:26;4.20;;;1.95;;
49472;SDS011;67434;50.956;6.918;2023-03-29T00:59:54;3.92;;;1.73;;
49472;SDS011;67434;50.956;6.918;2023-03-29T01:02:22;2.83;;;1.58;;
49472;SDS011;67434;50.956;6.918;2023-03-29T01:04:57;3.38;;;1.80;;
49472;SDS011;67434;50.956;6.918;2023-03-29T01:07:43;3.65;;;1.60;;
49472;SDS011;67434;50.956;6.918;2023-03-29T01:10:19;7.63;;;1.83;;
49472;SDS011;67434;50.956;6.918;2023-03-29T01:12:51;2.25;;;1.48;;
49472;SDS011;67434;50.956;6.918;2023-03-29T01:17:50;4.93;;;1.90;;
49472;SDS011;67434;50.956;6.918;2023-03-29T01:20:26;5.75;;;2.13;;
49472;SDS011;67434;50.956;6.918;2023-03-29T01:28:35;2.85;;;2.08;;
49472;SDS011;67434;50.956;6.918;2023-03-29T01:31:11;4.53;;;1.92;;
49472;SDS011;67434;50.956;6.918;2023-03-29T01:33:41;4.00;;;1.90;;
49472;SDS011;67434;50.956;6.918;2023-03-29T01:36:15;4.53;;;1.60;;
49472;SDS011;67434;50.956;6.918;2023-03-29T01:38:57;4.25;;;1.65;;
49472;SDS011;67434;50.956;6.918;2023-03-29T01:41:52;2.67;;;1.70;;
49472;SDS011;67434;50.956;6.918;2023-03-29T01:44:16;4.60;;;2.00;;
49472;SDS011;67434;50.956;6.918;2023-03-29T01:46:52;4.72;;;1.77;;
49472;SDS011;67434;50.956;6.918;2023-03-29T01:49:30;5.45;;;1.85;;
49472;SDS011;67434;50.956;6.918;2023-03-29T01:52:02;3.85;;;1.98;;
49472;SDS011;67434;50.956;6.918;2023-03-29T01:54:36;3.63;;;1.77;;
49472;SDS011;67434;50.956;6.918;2023-03-29T01:57:05;3.92;;;1.98;;
49472;SDS011;67434;50.956;6.918;2023-03-29T01:59:34;5.43;;;1.60;;
49472;SDS011;67434;50.956;6.918;2023-03-29T02:02:03;6.03;;;2.20;;
49472;SDS011;67434;50.956;6.918;2023-03-29T02:04:36;2.88;;;1.90;;
49472;SDS011;67434;50.956;6.918;2023-03-29T02:07:05;4.75;;;2.10;;
49472;SDS011;67434;50.956;6.918;2023-03-29T02:09:32;4.55;;;2.13;;
49472;SDS011;67434;50.956;6.918;2023-03-29T02:12:02;7.05;;;2.63;;
49472;SDS011;67434;50.956;6.918;2023-03-29T02:14:30;3.55;;;1.77;;
49472;SDS011;67434;50.956;6.918;2023-03-29T02:16:56;3.05;;;1.67;;
49472;SDS011;67434;50.956;6.918;2023-03-29T02:19:21;5.00;;;2.00;;
49472;SDS011;67434;50.956;6.918;2023-03-29T02:21:59;8.10;;;3.65;;
49472;SDS011;67434;50.956;6.918;2023-03-29T02:24:31;3.80;;;1.88;;
49472;SDS011;67434;50.956;6.918;2023-03-29T02:27:00;4.20;;;2.40;;
49472;SDS011;67434;50.956;6.918;2023-03-29T02:29:26;6.30;;;1.92;;
49472;SDS011;67434;50.956;6.918;2023-03-29T02:31:58;6.53;;;2.42;;
49472;SDS011;67434;50.956;6.918;2023-03-29T02:37:14;9.13;;;2.78;;
49472;SDS011;67434;50.956;6.918;2023-03-29T02:39:43;4.82;;;2.50;;
49472;SDS011;67434;50.956;6.918;2023-03-29T02:42:09;4.35;;;2.15;;
49472;SDS011;67434;50.956;6.918;2023-03-29T02:44:36;4.97;;;2.45;;
49472;SDS011;67434;50.956;6.918;2023-03-29T02:47:06;5.13;;;2.30;;
49472;SDS011;67434;50.956;6.918;2023-03-29T02:49:53;3.47;;;2.08;;
49472;SDS011;67434;50.956;6.918;2023-03-29T02:52:20;4.32;;;1.80;;
49472;SDS011;67434;50.956;6.918;2023-03-29T02:54:50;4.28;;;2.13;;
49472;SDS011;67434;50.956;6.918;2023-03-29T02:57:19;6.00;;;2.08;;
49472;SDS011;67434;50.956;6.918;2023-03-29T02:59:50;4.57;;;2.35;;
49472;SDS011;67434;50.956;6.918;2023-03-29T03:02:18;4.35;;;2.60;;
49472;SDS011;67434;50.956;6.918;2023-03-29T03:04:44;5.75;;;2.28;;
49472;SDS011;67434;50.956;6.918;2023-03-29T03:07:09;3.78;;;1.85;;
49472;SDS011;67434;50.956;6.918;2023-03-29T03:09:34;2.63;;;1.98;;
49472;SDS011;67434;50.956;6.918;2023-03-29T03:12:00;2.22;;;1.77;;
49472;SDS011;67434;50.956;6.918;2023-03-29T03:14:25;3.88;;;1.92;;
49472;SDS011;67434;50.956;6.918;2023-03-29T03:16:52;3.47;;;1.58;;
49472;SDS011;67434;50.956;6.918;2023-03-29T03:19:19;3.78;;;2.20;;
49472;SDS011;67434;50.956;6.918;2023-03-29T03:21:45;3.78;;;2.20;;
49472;SDS011;67434;50.956;6.918;2023-03-29T03:24:11;5.03;;;1.98;;
49472;SDS011;67434;50.956;6.918;2023-03-29T03:26:36;4.20;;;1.77;;
49472;SDS011;67434;50.956;6.918;2023-03-29T03:29:02;4.15;;;1.73;;
49472;SDS011;67434;50.956;6.918;2023-03-29T03:31:28;4.38;;;1.95;;
49472;SDS011;67434;50.956;6.918;2023-03-29T03:33:54;3.28;;;1.88;;
49472;SDS011;67434;50.956;6.918;2023-03-29T03:36:19;2.53;;;1.73;;
49472;SDS011;67434;50.956;6.918;2023-03-29T03:38:50;2.88;;;1.58;;
49472;SDS011;67434;50.956;6.918;2023-03-29T03:41:16;4.35;;;1.67;;
49472;SDS011;67434;50.956;6.918;2023-03-29T03:43:42;2.83;;;1.77;;
49472;SDS011;67434;50.956;6.918;2023-03-29T03:46:12;4.30;;;1.70;;
49472;SDS011;67434;50.956;6.918;2023-03-29T03:48:39;5.18;;;1.95;;
49472;SDS011;67434;50.956;6.918;2023-03-29T03:51:04;3.05;;;1.80;;
49472;SDS011;67434;50.956;6.918;2023-03-29T03:53:30;2.85;;;2.17;;
49472;SDS011;67434;50.956;6.918;2023-03-29T03:55:56;5.75;;;1.75;;
49472;SDS011;67434;50.956;6.918;2023-03-29T03:58:21;6.85;;;2.03;;
49472;SDS011;67434;50.956;6.918;2023-03-29T04:00:47;4.47;;;2.00;;
49472;SDS011;67434;50.956;6.918;2023-03-29T04:03:14;4.30;;;1.88;;
49472;SDS011;67434;50.956;6.918;2023-03-29T04:05:42;4.15;;;1.90;;
49472;SDS011;67434;50.956;6.918;2023-03-29T04:08:09;2.08;;;1.27;;
49472;SDS011;67434;50.956;6.918;2023-03-29T04:10:36;3.20;;;1.83;;
49472;SDS011;67434;50.956;6.918;2023-03-29T04:13:02;5.68;;;2.25;;
49472;SDS011;67434;50.956;6.918;2023-03-29T04:15:30;5.28;;;1.75;;
49472;SDS011;67434;50.956;6.918;2023-03-29T04:17:56;6.10;;;1.48;;
49472;SDS011;67434;50.956;6.918;2023-03-29T04:20:23;4.68;;;2.13;;
49472;SDS011;67434;50.956;6.918;2023-03-29T04:22:49;3.45;;;1.90;;
49472;SDS011;67434;50.956;6.918;2023-03-29T04:25:15;4.45;;;2.20;;
49472;SDS011;67434;50.956;6.918;2023-03-29T04:27:41;5.15;;;2.10;;
49472;SDS011;67434;50.956;6.918;2023-03-29T04:30:10;4.00;;;2.13;;
49472;SDS011;67434;50.956;6.918;2023-03-29T04:32:35;4.93;;;2.45;;
49472;SDS011;67434;50.956;6.918;2023-03-29T04:35:01;3.47;;;2.10;;
49472;SDS011;67434;50.956;6.918;2023-03-29T04:37:29;4.95;;;2.03;;
49472;SDS011;67434;50.956;6.918;2023-03-29T04:39:55;6.35;;;2.38;;
49472;SDS011;67434;50.956;6.918;2023-03-29T04:42:21;7.57;;;2.65;;
49472;SDS011;67434;50.956;6.918;2023-03-29T04:44:46;4.47;;;2.28;;
49472;SDS011;67434;50.956;6.918;2023-03-29T04:47:12;4.32;;;2.25;;
49472;SDS011;67434;50.956;6.918;2023-03-29T04:49:37;6.20;;;2.47;;
49472;SDS011;67434;50.956;6.918;2023-03-29T04:52:03;4.45;;;2.75;;
49472;SDS011;67434;50.956;6.918;2023-03-29T04:54:28;3.47;;;1.90;;
49472;SDS011;67434;50.956;6.918;2023-03-29T04:56:54;4.35;;;1.95;;
49472;SDS011;67434;50.956;6.918;2023-03-29T04:59:20;5.57;;;2.28;;
49472;SDS011;67434;50.956;6.918;2023-03-29T05:01:46;4.18;;;2.00;;
49472;SDS011;67434;50.956;6.918;2023-03-29T05:04:11;3.72;;;2.50;;
49472;SDS011;67434;50.956;6.918;2023-03-29T05:06:37;6.65;;;2.13;;
49472;SDS011;67434;50.956;6.918;2023-03-29T05:09:03;6.13;;;3.38;;
49472;SDS011;67434;50.956;6.918;2023-03-29T05:11:30;4.93;;;2.42;;
49472;SDS011;67434;50.956;6.918;2023-03-29T05:13:56;4.95;;;1.83;;
49472;SDS011;67434;50.956;6.918;2023-03-29T05:16:26;6.10;;;2.15;;
49472;SDS011;67434;50.956;6.918;2023-03-29T05:18:54;3.13;;;1.85;;
49472;SDS011;67434;50.956;6.918;2023-03-29T05:21:20;4.68;;;2.17;;
49472;SDS011;67434;50.956;6.918;2023-03-29T05:23:46;5.57;;;2.53;;
49472;SDS011;67434;50.956;6.918;2023-03-29T05:26:11;4.18;;;2.47;;
49472;SDS011;67434;50.956;6.918;2023-03-29T05:28:39;6.00;;;2.75;;
49472;SDS011;67434;50.956;6.918;2023-03-29T05:31:05;6.57;;;2.20;;
49472;SDS011;67434;50.956;6.918;2023-03-29T05:33:30;5.43;;;2.50;;
49472;SDS011;67434;50.956;6.918;2023-03-29T05:36:00;4.88;;;2.35;;
49472;SDS011;67434;50.956;6.918;2023-03-29T05:38:33;10.98;;;2.72;;
49472;SDS011;67434;50.956;6.918;2023-03-29T05:40:59;6.47;;;2.45;;
49472;SDS011;67434;50.956;6.918;2023-03-29T05:43:25;3.35;;;2.65;;
49472;SDS011;67434;50.956;6.918;2023-03-29T05:45:53;7.28;;;2.13;;
49472;SDS011;67434;50.956;6.918;2023-03-29T05:48:20;4.15;;;1.67;;
49472;SDS011;67434;50.956;6.918;2023-03-29T05:50:49;3.78;;;1.50;;
49472;SDS011;67434;50.956;6.918;2023-03-29T05:53:16;5.97;;;2.85;;
49472;SDS011;67434;50.956;6.918;2023-03-29T05:55:42;4.10;;;1.25;;
49472;SDS011;67434;50.956;6.918;2023-03-29T05:58:10;5.78;;;1.88;;
49472;SDS011;67434;50.956;6.918;2023-03-29T06:00:37;6.60;;;1.42;;
49472;SDS011;67434;50.956;6.918;2023-03-29T06:03:03;3.10;;;1.77;;
49472;SDS011;67434;50.956;6.918;2023-03-29T06:05:30;4.05;;;1.70;;
49472;SDS011;67434;50.956;6.918;2023-03-29T06:07:56;2.15;;;1.35;;
49472;SDS011;67434;50.956;6.918;2023-03-29T06:10:23;2.95;;;1.67;;
49472;SDS011;67434;50.956;6.918;2023-03-29T06:12:49;7.22;;;2.58;;
49472;SDS011;67434;50.956;6.918;2023-03-29T06:15:16;3.60;;;1.85;;
49472;SDS011;67434;50.956;6.918;2023-03-29T06:17:42;4.18;;;1.85;;
49472;SDS011;67434;50.956;6.918;2023-03-29T06:20:11;3.40;;;1.80;;
49472;SDS011;67434;50.956;6.918;2023-03-29T06:22:37;4.32;;;1.50;;
49472;SDS011;67434;50.956;6.918;2023-03-29T06:25:04;4.22;;;2.47;;
49472;SDS011;67434;50.956;6.918;2023-03-29T06:27:30;3.47;;;1.88;;
49472;SDS011;67434;50.956;6.918;2023-03-29T06:29:56;3.28;;;1.80;;
49472;SDS011;67434;50.956;6.918;2023-03-29T06:32:23;6.45;;;2.10;;
49472;SDS011;67434;50.956;6.918;2023-03-29T06:34:49;2.78;;;1.92;;
49472;SDS011;67434;50.956;6.918;2023-03-29T06:37:14;2.75;;;1.77;;
49472;SDS011;67434;50.956;6.918;2023-03-29T06:39:40;9.50;;;1.80;;
49472;SDS011;67434;50.956;6.918;2023-03-29T06:42:05;6.30;;;2.45;;
49472;SDS011;67434;50.956;6.918;2023-03-29T06:44:32;4.20;;;1.60;;
49472;SDS011;67434;50.956;6.918;2023-03-29T06:46:59;7.90;;;2.50;;
49472;SDS011;67434;50.956;6.918;2023-03-29T06:49:25;5.05;;;1.52;;
49472;SDS011;67434;50.956;6.918;2023-03-29T06:51:52;4.13;;;2.10;;
49472;SDS011;67434;50.956;6.918;2023-03-29T06:54:18;3.80;;;1.88;;
49472;SDS011;67434;50.956;6.918;2023-03-29T06:56:43;7.03;;;1.92;;
49472;SDS011;67434;50.956;6.918;2023-03-29T06:59:11;2.90;;;1.50;;
49472;SDS011;67434;50.956;6.918;2023-03-29T07:01:37;3.60;;;1.67;;
49472;SDS011;67434;50.956;6.918;2023-03-29T07:04:03;2.97;;;1.65;;
49472;SDS011;67434;50.956;6.918;2023-03-29T07:06:33;5.43;;;1.98;;
49472;SDS011;67434;50.956;6.918;2023-03-29T07:08:58;6.60;;;1.90;;
49472;SDS011;67434;50.956;6.918;2023-03-29T07:11:28;3.95;;;2.03;;
49472;SDS011;67434;50.956;6.918;2023-03-29T07:13:55;5.15;;;1.98;;
49472;SDS011;67434;50.956;6.918;2023-03-29T07:16:20;5.53;;;2.00;;
49472;SDS011;67434;50.956;6.918;2023-03-29T07:18:46;4.13;;;1.85;;
49472;SDS011;67434;50.956;6.918;2023-03-29T07:21:11;3.88;;;1.90;;
49472;SDS011;67434;50.956;6.918;2023-03-29T07:23:37;4.57;;;2.28;;
49472;SDS011;67434;50.956;6.918;2023-03-29T07:26:03;2.72;;;1.50;;
49472;SDS011;67434;50.956;6.918;2023-03-29T07:28:32;10.48;;;2.65;;
49472;SDS011;67434;50.956;6.918;2023-03-29T07:31:08;7.85;;;2.08;;
49472;SDS011;67434;50.956;6.918;2023-03-29T07:33:37;5.78;;;2.25;;
49472;SDS011;67434;50.956;6.918;2023-03-29T07:36:03;3.75;;;1.27;;
49472;SDS011;67434;50.956;6.918;2023-03-29T07:38:32;6.80;;;1.88;;
49472;SDS011;67434;50.956;6.918;2023-03-29T07:40:57;2.67;;;1.63;;
49472;SDS011;67434;50.956;6.918;2023-03-29T07:43:23;6.63;;;2.30;;
49472;SDS011;67434;50.956;6.918;2023-03-29T07:45:49;3.72;;;1.90;;
49472;SDS011;67434;50.956;6.918;2023-03-29T07:48:16;3.40;;;1.90;;
49472;SDS011;67434;50.956;6.918;2023-03-29T07:50:44;4.18;;;2.25;;
49472;SDS011;67434;50.956;6.918;2023-03-29T07:53:10;3.58;;;1.58;;
49472;SDS011;67434;50.956;6.918;2023-03-29T07:55:38;4.82;;;1.90;;
49472;SDS011;67434;50.956;6.918;2023-03-29T07:58:11;3.75;;;2.00;;
49472;SDS011;67434;50.956;6.918;2023-03-29T08:00:40;6.15;;;3.03;;
49472;SDS011;67434;50.956;6.918;2023-03-29T08:03:09;8.80;;;4.18;;
49472;SDS011;67434;50.956;6.918;2023-03-29T08:05:35;5.03;;;2.42;;
49472;SDS011;67434;50.956;6.918;2023-03-29T08:08:01;4.30;;;1.83;;
49472;SDS011;67434;50.956;6.918;2023-03-29T08:10:26;3.53;;;2.20;;
49472;SDS011;67434;50.956;6.918;2023-03-29T08:12:52;5.38;;;2.22;;
49472;SDS011;67434;50.956;6.918;2023-03-29T08:15:18;9.32;;;2.35;;
49472;SDS011;67434;50.956;6.918;2023-03-29T08:17:43;6.43;;;2.58;;
49472;SDS011;67434;50.956;6.918;2023-03-29T08:20:10;7.38;;;1.77;;
49472;SDS011;67434;50.956;6.918;2023-03-29T08:22:39;3.60;;;1.70;;
49472;SDS011;67434;50.956;6.918;2023-03-29T08:25:04;2.75;;;1.88;;
49472;SDS011;67434;50.956;6.918;2023-03-29T08:27:34;6.15;;;2.30;;
49472;SDS011;67434;50.956;6.918;2023-03-29T08:29:59;3.47;;;1.52;;
49472;SDS011;67434;50.956;6.918;2023-03-29T08:32:25;3.05;;;1.80;;
49472;SDS011;67434;50.956;6.918;2023-03-29T08:34:50;7.68;;;2.10;;
49472;SDS011;67434;50.956;6.918;2023-03-29T08:37:16;6.03;;;2.47;;
49472;SDS011;67434;50.956;6.918;2023-03-29T08:39:42;2.50;;;1.60;;
49472;SDS011;67434;50.956;6.918;2023-03-29T08:50:12;3.30;;;1.92;;
49472;SDS011;67434;50.956;6.918;2023-03-29T08:52:48;3.20;;;1.85;;
49472;SDS011;67434;50.956;6.918;2023-03-29T08:55:23;3.40;;;2.28;;
49472;SDS011;67434;50.956;6.918;2023-03-29T08:57:58;3.58;;;2.03;;
49472;SDS011;67434;50.956;6.918;2023-03-29T09:00:31;5.22;;;2.35;;
49472;SDS011;67434;50.956;6.918;2023-03-29T09:03:01;3.35;;;2.33;;
49472;SDS011;67434;50.956;6.918;2023-03-29T09:05:33;4.35;;;2.15;;
49472;SDS011;67434;50.956;6.918;2023-03-29T09:08:14;4.32;;;2.00;;
49472;SDS011;67434;50.956;6.918;2023-03-29T09:10:55;3.92;;;1.92;;
49472;SDS011;67434;50.956;6.918;2023-03-29T09:17:24;3.47;;;1.85;;
49472;SDS011;67434;50.956;6.918;2023-03-29T09:22:49;7.20;;;3.40;;
49472;SDS011;67434;50.956;6.918;2023-03-29T09:25:23;5.82;;;3.08;;
49472;SDS011;67434;50.956;6.918;2023-03-29T09:28:04;5.80;;;2.60;;
49472;SDS011;67434;50.956;6.918;2023-03-29T09:30:39;3.33;;;2.45;;
49472;SDS011;67434;50.956;6.918;2023-03-29T09:33:16;5.68;;;2.55;;
49472;SDS011;67434;50.956;6.918;2023-03-29T09:36:06;4.88;;;2.00;;
49472;SDS011;67434;50.956;6.918;2023-03-29T09:38:42;4.32;;;2.42;;
49472;SDS011;67434;50.956;6.918;2023-03-29T09:41:17;5.95;;;2.08;;
49472;SDS011;67434;50.956;6.918;2023-03-29T09:43:51;3.15;;;2.10;;
49472;SDS011;67434;50.956;6.918;2023-03-29T09:46:27;2.70;;;2.30;;
49472;SDS011;67434;50.956;6.918;2023-03-29T09:49:00;5.85;;;2.15;;
49472;SDS011;67434;50.956;6.918;2023-03-29T09:51:30;6.00;;;3.25;;
49472;SDS011;67434;50.956;6.918;2023-03-29T09:53:58;6.93;;;2.45;;
49472;SDS011;67434;50.956;6.918;2023-03-29T09:56:24;5.80;;;2.17;;
49472;SDS011;67434;50.956;6.918;2023-03-29T09:58:51;4.30;;;2.10;;
49472;SDS011;67434;50.956;6.918;2023-03-29T10:01:16;4.82;;;2.60;;
49472;SDS011;67434;50.956;6.918;2023-03-29T10:03:49;7.20;;;2.35;;
49472;SDS011;67434;50.956;6.918;2023-03-29T10:06:16;4.40;;;2.25;;
49472;SDS011;67434;50.956;6.918;2023-03-29T10:08:45;5.07;;;2.22;;
49472;SDS011;67434;50.956;6.918;2023-03-29T10:14:15;3.95;;;2.05;;
49472;SDS011;67434;50.956;6.918;2023-03-29T10:16:42;3.58;;;1.88;;
49472;SDS011;67434;50.956;6.918;2023-03-29T10:19:29;5.35;;;3.08;;
49472;SDS011;67434;50.956;6.918;2023-03-29T10:22:00;2.92;;;1.85;;
49472;SDS011;67434;50.956;6.918;2023-03-29T10:24:28;6.57;;;2.60;;
49472;SDS011;67434;50.956;6.918;2023-03-29T10:27:02;5.47;;;2.30;;
49472;SDS011;67434;50.956;6.918;2023-03-29T10:29:34;6.88;;;2.33;;
49472;SDS011;67434;50.956;6.918;2023-03-29T10:32:12;6.22;;;2.30;;
49472;SDS011;67434;50.956;6.918;2023-03-29T10:34:44;4.75;;;2.42;;
49472;SDS011;67434;50.956;6.918;2023-03-29T10:37:10;17.30;;;7.95;;
49472;SDS011;67434;50.956;6.918;2023-03-29T10:39:38;9.25;;;4.82;;
49472;SDS011;67434;50.956;6.918;2023-03-29T10:42:06;6.25;;;3.53;;
49472;SDS011;67434;50.956;6.918;2023-03-29T10:44:38;6.25;;;3.22;;
49472;SDS011;67434;50.956;6.918;2023-03-29T10:47:18;5.18;;;2.25;;
49472;SDS011;67434;50.956;6.918;2023-03-29T10:49:53;11.15;;;3.40;;
49472;SDS011;67434;50.956;6.918;2023-03-29T10:52:20;9.10;;;2.75;;
49472;SDS011;67434;50.956;6.918;2023-03-29T10:54:48;5.38;;;2.38;;
49472;SDS011;67434;50.956;6.918;2023-03-29T11:06:25;5.55;;;2.53;;
49472;SDS011;67434;50.956;6.918;2023-03-29T11:13:50;4.47;;;1.90;;
49472;SDS011;67434;50.956;6.918;2023-03-29T11:16:20;7.00;;;2.03;;
49472;SDS011;67434;50.956;6.918;2023-03-29T11:21:33;4.68;;;1.80;;
49472;SDS011;67434;50.956;6.918;2023-03-29T11:26:59;3.40;;;1.60;;
49472;SDS011;67434;50.956;6.918;2023-03-29T11:38:25;5.10;;;2.25;;
49472;SDS011;67434;50.956;6.918;2023-03-29T11:41:00;6.45;;;2.35;;
49472;SDS011;67434;50.956;6.918;2023-03-29T11:44:32;6.93;;;3.03;;
49472;SDS011;67434;50.956;6.918;2023-03-29T11:46:48;4.07;;;1.83;;
49472;SDS011;67434;50.956;6.918;2023-03-29T11:49:41;6.60;;;2.45;;
49472;SDS011;67434;50.956;6.918;2023-03-29T11:52:15;4.57;;;2.40;;
49472;SDS011;67434;50.956;6.918;2023-03-29T11:54:47;6.30;;;2.85;;
49472;SDS011;67434;50.956;6.918;2023-03-29T12:00:05;5.40;;;2.08;;
49472;SDS011;67434;50.956;6.918;2023-03-29T12:02:41;6.75;;;2.10;;
49472;SDS011;67434;50.956;6.918;2023-03-29T12:08:12;6.28;;;2.35;;
49472;SDS011;67434;50.956;6.918;2023-03-29T12:13:49;8.45;;;2.95;;
49472;SDS011;67434;50.956;6.918;2023-03-29T12:16:23;4.35;;;1.75;;
49472;SDS011;67434;50.956;6.918;2023-03-29T12:18:58;6.53;;;2.70;;
49472;SDS011;67434;50.956;6.918;2023-03-29T12:21:34;4.75;;;1.65;;
49472;SDS011;67434;50.956;6.918;2023-03-29T12:24:00;3.58;;;1.27;;
49472;SDS011;67434;50.956;6.918;2023-03-29T12:26:47;4.05;;;1.15;;
49472;SDS011;67434;50.956;6.918;2023-03-29T12:29:47;1.98;;;0.95;;
49472;SDS011;67434;50.956;6.918;2023-03-29T12:38:02;5.95;;;1.73;;
49472;SDS011;67434;50.956;6.918;2023-03-29T12:40:35;2.15;;;1.35;;
49472;SDS011;67434;50.956;6.918;2023-03-29T12:43:06;4.60;;;0.98;;
49472;SDS011;67434;50.956;6.918;2023-03-29T12:45:43;1.75;;;0.70;;
49472;SDS011;67434;50.956;6.918;2023-03-29T12:48:30;2.35;;;0.70;;
49472;SDS011;67434;50.956;6.918;2023-03-29T12:51:00;5.32;;;1.60;;
49472;SDS011;67434;50.956;6.918;2023-03-29T12:53:31;4.63;;;1.00;;
49472;SDS011;67434;50.956;6.918;2023-03-29T13:01:30;2.88;;;0.90;;
49472;SDS011;67434;50.956;6.918;2023-03-29T13:04:17;3.13;;;1.20;;
49472;SDS011;67434;50.956;6.918;2023-03-29T13:09:20;1.90;;;1.00;;
49472;SDS011;67434;50.956;6.918;2023-03-29T13:14:34;4.28;;;0.60;;
49472;SDS011;67434;50.956;6.918;2023-03-29T13:17:06;1.25;;;0.60;;
49472;SDS011;67434;50.956;6.918;2023-03-29T13:19:44;3.53;;;0.70;;
49472;SDS011;67434;50.956;6.918;2023-03-29T13:35:00;5.25;;;1.60;;
49472;SDS011;67434;50.956;6.918;2023-03-29T13:38:05;2.30;;;0.85;;
49472;SDS011;67434;50.956;6.918;2023-03-29T13:45:43;3.55;;;0.55;;
49472;SDS011;67434;50.956;6.918;2023-03-29T13:51:18;1.27;;;0.55;;
49472;SDS011;67434;50.956;6.918;2023-03-29T13:54:02;5.43;;;1.08;;
49472;SDS011;67434;50.956;6.918;2023-03-29T13:59:33;1.50;;;0.93;;
49472;SDS011;67434;50.956;6.918;2023-03-29T14:01:59;4.43;;;0.70;;
49472;SDS011;67434;50.956;6.918;2023-03-29T14:04:29;3.78;;;0.93;;
49472;SDS011;67434;50.956;6.918;2023-03-29T14:06:59;4.50;;;2.20;;
49472;SDS011;67434;50.956;6.918;2023-03-29T14:09:28;5.45;;;1.48;;
49472;SDS011;67434;50.956;6.918;2023-03-29T14:11:55;6.47;;;2.75;;
49472;SDS011;67434;50.956;6.918;2023-03-29T14:14:23;1.80;;;0.88;;
49472;SDS011;67434;50.956;6.918;2023-03-29T14:16:51;2.40;;;0.80;;
49472;SDS011;67434;50.956;6.918;2023-03-29T14:19:26;2.70;;;1.17;;
49472;SDS011;67434;50.956;6.918;2023-03-29T14:21:55;2.92;;;1.02;;
49472;SDS011;67434;50.956;6.918;2023-03-29T14:24:24;4.10;;;1.30;;
49472;SDS011;67434;50.956;6.918;2023-03-29T14:26:52;1.67;;;0.73;;
49472;SDS011;67434;50.956;6.918;2023-03-29T14:29:18;3.13;;;1.30;;
49472;SDS011;67434;50.956;6.918;2023-03-29T14:31:44;2.80;;;1.02;;
49472;SDS011;67434;50.956;6.918;2023-03-29T14:34:15;2.65;;;0.75;;
49472;SDS011;67434;50.956;6.918;2023-03-29T14:36:43;4.28;;;1.20;;
49472;SDS011;67434;50.956;6.918;2023-03-29T14:39:16;3.25;;;1.10;;
49472;SDS011;67434;50.956;6.918;2023-03-29T14:42:02;2.37;;;0.90;;
49472;SDS011;67434;50.956;6.918;2023-03-29T14:44:28;1.88;;;0.82;;
49472;SDS011;67434;50.956;6.918;2023-03-29T14:46:57;1.77;;;0.70;;
49472;SDS011;67434;50.956;6.918;2023-03-29T14:49:23;2.50;;;1.08;;
49472;SDS011;67434;50.956;6.918;2023-03-29T14:51:50;3.33;;;0.60;;
49472;SDS011;67434;50.956;6.918;2023-03-29T14:54:18;2.97;;;1.10;;
49472;SDS011;67434;50.956;6.918;2023-03-29T14:57:04;3.60;;;0.90;;
49472;SDS011;67434;50.956;6.918;2023-03-29T14:59:34;2.72;;;0.60;;
49472;SDS011;67434;50.956;6.918;2023-03-29T15:02:02;0.95;;;0.57;;
49472;SDS011;67434;50.956;6.918;2023-03-29T15:04:31;4.22;;;1.30;;
49472;SDS011;67434;50.956;6.918;2023-03-29T15:07:02;1.15;;;0.82;;
49472;SDS011;67434;50.956;6.918;2023-03-29T15:09:30;3.00;;;0.60;;
49472;SDS011;67434;50.956;6.918;2023-03-29T15:11:58;1.35;;;0.70;;
49472;SDS011;67434;50.956;6.918;2023-03-29T15:14:31;2.13;;;0.77;;
49472;SDS011;67434;50.956;6.918;2023-03-29T15:17:04;2.55;;;0.88;;
49472;SDS011;67434;50.956;6.918;2023-03-29T15:19:45;2.40;;;0.63;;
49472;SDS011;67434;50.956;6.918;2023-03-29T15:22:35;1.63;;;0.70;;
49472;SDS011;67434;50.956;6.918;2023-03-29T15:25:01;3.72;;;0.90;;
49472;SDS011;67434;50.956;6.918;2023-03-29T15:27:37;4.78;;;1.20;;
49472;SDS011;67434;50.956;6.918;2023-03-29T15:30:13;2.63;;;1.00;;
49472;SDS011;67434;50.956;6.918;2023-03-29T15:32:41;2.67;;;0.82;;
49472;SDS011;67434;50.956;6.918;2023-03-29T15:35:07;2.80;;;0.90;;
49472;SDS011;67434;50.956;6.918;2023-03-29T15:37:45;2.20;;;0.65;;
49472;SDS011;67434;50.956;6.918;2023-03-29T15:40:21;1.67;;;0.95;;
49472;SDS011;67434;50.956;6.918;2023-03-29T15:42:49;1.88;;;0.90;;
49472;SDS011;67434;50.956;6.918;2023-03-29T15:45:16;3.08;;;1.05;;
49472;SDS011;67434;50.956;6.918;2023-03-29T15:47:43;2.10;;;0.73;;
49472;SDS011;67434;50.956;6.918;2023-03-29T15:50:09;4.55;;;0.77;;
49472;SDS011;67434;50.956;6.918;2023-03-29T15:52:35;3.88;;;1.67;;
49472;SDS011;67434;50.956;6.918;2023-03-29T15:55:02;2.95;;;1.00;;
49472;SDS011;67434;50.956;6.918;2023-03-29T15:57:28;4.18;;;1.83;;
49472;SDS011;67434;50.956;6.918;2023-03-29T15:59:54;4.38;;;2.10;;
49472;SDS011;67434;50.956;6.918;2023-03-29T16:02:21;4.03;;;2.00;;
49472;SDS011;67434;50.956;6.918;2023-03-29T16:04:48;3.60;;;1.10;;
49472;SDS011;67434;50.956;6.918;2023-03-29T16:07:14;4.72;;;1.50;;
49472;SDS011;67434;50.956;6.918;2023-03-29T16:09:41;4.40;;;2.25;;
49472;SDS011;67434;50.956;6.918;2023-03-29T16:12:08;4.13;;;1.80;;
49472;SDS011;67434;50.956;6.918;2023-03-29T16:14:33;4.35;;;1.50;;
49472;SDS011;67434;50.956;6.918;2023-03-29T16:16:59;5.18;;;2.05;;
49472;SDS011;67434;50.956;6.918;2023-03-29T16:19:25;1.92;;;0.75;;
49472;SDS011;67434;50.956;6.918;2023-03-29T16:21:52;3.30;;;1.33;;
49472;SDS011;67434;50.956;6.918;2023-03-29T16:24:25;8.85;;;4.30;;
49472;SDS011;67434;50.956;6.918;2023-03-29T16:26:52;5.15;;;2.55;;
49472;SDS011;67434;50.956;6.918;2023-03-29T16:29:18;4.55;;;1.38;;
49472;SDS011;67434;50.956;6.918;2023-03-29T16:31:47;3.53;;;1.30;;
49472;SDS011;67434;50.956;6.918;2023-03-29T16:34:14;5.22;;;1.23;;
49472;SDS011;67434;50.956;6.918;2023-03-29T16:36:43;2.15;;;0.80;;
49472;SDS011;67434;50.956;6.918;2023-03-29T16:39:09;2.25;;;1.20;;
49472;SDS011;67434;50.956;6.918;2023-03-29T16:41:37;5.28;;;1.55;;
49472;SDS011;67434;50.956;6.918;2023-03-29T16:44:02;4.32;;;1.73;;
49472;SDS011;67434;50.956;6.918;2023-03-29T16:46:28;1.67;;;1.00;;
49472;SDS011;67434;50.956;6.918;2023-03-29T16:48:54;2.58;;;1.00;;
49472;SDS011;67434;50.956;6.918;2023-03-29T16:51:24;3.15;;;1.23;;